LCRA/AKT METAR and TAF weather

Enter ICAO airport designator
Station Type Date Time Source
LCRA METAR 2020/06/03 15:50 UTC NOAA

LCRA 031550Z 27011KT 9999 FEW030 21/15 Q1010 NOSIG RMK BLU BLU


Station Type Date Time Source
LCRA Decoded METAR 2020/06/03 15:50 UTC NOAA

Akrotiri, Cyprus (LCRA) 34-35N 032-59E 0M
Jun 03, 2020 - 11:50 AM EDT / 2020.06.03 1550 UTC
Wind: from the W (270 degrees) at 13 MPH (11 KT):0
Visibility: greater than 7 mile(s):0
Sky conditions: mostly clear
Temperature: 69 F (21 C)
Dew Point: 59 F (15 C)
Relative Humidity: 68%
Pressure (altimeter): 29.83 in. Hg (1010 hPa)
ob: LCRA 031550Z 27011KT 9999 FEW030 21/15 Q1010 NOSIG RMK BLU BLU
cycle: 16

Station Type Date Time Source
LCRA TAF 2020/06/03 15:46 UTC NOAA

TAF LCRA 031343Z 0315/0409 24015KT 9999 FEW025
BECMG 0400/0403 33003KT

Example: see airport list